Latest Weather Observations for Inner Beacon

IDQ60901

Issued at 5:11 pm EST Thursday 18 July 2024 (issued every 10 minutes, with the page automatically refreshed every 10 minutes)

About weather observations | Map of Brisbane area stations | Latest observations for Brisbane area | Other Formats
Station Details ID: 040926 Name: INNER RECIPROCAL MARKER Lat: -27.26 Lon: 153.24 Height: 10.0 m
Data from the previous 72 hours. | See also: Recent months at Inner Beacon
Date/Time
EST
Temp
°C
App
Temp
°C
Dew
Point
°C
Rel
Hum
%
Delta-T
°C
Wind Press
QNH
hPa
Press
MSL
hPa
Rain since
9am
mm
Dir  Spd
km/h
Gust
km/h
Spd
kts
Gust
kts
18/05:00pm - - - - - W 32 37 17 20 - - -
18/04:30pm - - - - - W 35 44 19 24 - - -
18/04:00pm - - - - - W 32 37 17 20 - - -
18/03:30pm - - - - - W 32 35 17 19 - - -
18/03:00pm - - - - - W 28 33 15 18 - - -
18/02:30pm - - - - - WSW 26 35 14 19 - - -
18/02:00pm - - - - - WSW 26 33 14 18 - - -
18/01:30pm - - - - - WSW 28 33 15 18 - - -
18/01:00pm - - - - - W 30 33 16 18 - - -
18/12:30pm - - - - - WSW 28 33 15 18 - - -
18/12:00pm - - - - - WSW 28 33 15 18 - - -
18/11:30am - - - - - WSW 30 35 16 19 - - -
18/11:00am - - - - - WSW 28 37 15 20 - - -
18/10:30am - - - - - WSW 26 32 14 17 - - -
18/10:00am - - - - - WSW 28 33 15 18 - - -
18/09:30am - - - - - WSW 32 37 17 20 - - -
18/09:00am - - - - - WSW 33 39 18 21 - - -
18/08:30am - - - - - WSW 35 44 19 24 - - -
18/08:00am - - - - - WSW 39 46 21 25 - - -
18/07:30am - - - - - WSW 35 43 19 23 - - -
18/07:00am - - - - - WSW 35 43 19 23 - - -
18/06:30am - - - - - WSW 33 41 18 22 - - -
18/06:00am - - - - - WSW 33 41 18 22 - - -
18/05:30am - - - - - W 30 35 16 19 - - -
18/05:00am - - - - - W 28 35 15 19 - - -
18/04:30am - - - - - WSW 30 41 16 22 - - -
18/04:00am - - - - - W 24 32 13 17 - - -
18/03:30am - - - - - W 32 39 17 21 - - -
18/03:00am - - - - - WSW 32 43 17 23 - - -
18/02:30am - - - - - W 37 46 20 25 - - -
18/02:00am - - - - - W 35 44 19 24 - - -
18/01:30am - - - - - W 37 44 20 24 - - -
18/01:00am - - - - - W 35 44 19 24 - - -
18/12:30am - - - - - WNW 30 41 16 22 - - -
18/12:00am - - - - - W 39 50 21 27 - - -
 
Date/Time
EST
Temp
°C
App
Temp
°C
Dew
Point
°C
Rel
Hum
%
Delta-T
°C
Wind Press
QNH
hPa
Press
MSL
hPa
Rain since
9am
mm
Dir  Spd
km/h
Gust
km/h
Spd
kts
Gust
kts
17/11:30pm - - - - - W 41 52 22 28 - - -
17/11:00pm - - - - - W 41 46 22 25 - - -
17/10:30pm - - - - - W 33 46 18 25 - - -
17/10:00pm - - - - - W 33 43 18 23 - - -
17/09:30pm - - - - - W 35 41 19 22 - - -
17/09:00pm - - - - - W 37 44 20 24 - - -
17/08:30pm - - - - - W 37 46 20 25 - - -
17/08:00pm - - - - - W 35 43 19 23 - - -
17/07:30pm - - - - - W 39 50 21 27 - - -
17/07:00pm - - - - - W 39 46 21 25 - - -
17/06:30pm - - - - - W 39 48 21 26 - - -
17/06:00pm - - - - - W 37 48 20 26 - - -
17/05:30pm - - - - - WSW 37 48 20 26 - - -
17/05:00pm - - - - - WSW 37 48 20 26 - - -
17/04:30pm - - - - - WSW 37 48 20 26 - - -
17/04:00pm - - - - - WSW 35 43 19 23 - - -
17/03:30pm - - - - - W 39 48 21 26 - - -
17/03:00pm - - - - - WSW 33 39 18 21 - - -
17/02:30pm - - - - - W 37 43 20 23 - - -
17/02:00pm - - - - - W 33 41 18 22 - - -
17/01:30pm - - - - - W 28 35 15 19 - - -
17/01:00pm - - - - - W 28 35 15 19 - - -
17/12:30pm - - - - - WNW 26 32 14 17 - - -
17/12:00pm - - - - - W 26 32 14 17 - - -
17/11:30am - - - - - W 26 33 14 18 - - -
17/11:00am - - - - - W 30 35 16 19 - - -
17/10:30am - - - - - W 26 35 14 19 - - -
17/10:00am - - - - - W 24 33 13 18 - - -
17/09:30am - - - - - W 30 39 16 21 - - -
17/09:00am - - - - - W 33 41 18 22 - - -
17/08:30am - - - - - WNW 26 33 14 18 - - -
17/08:00am - - - - - W 28 39 15 21 - - -
17/07:30am - - - - - W 30 37 16 20 - - -
17/07:00am - - - - - W 35 44 19 24 - - -
17/06:30am - - - - - W 30 37 16 20 - - -
17/06:00am - - - - - WNW 26 33 14 18 - - -
17/05:30am - - - - - WNW 24 28 13 15 - - -
17/05:00am - - - - - NW 24 28 13 15 - - -
17/04:30am - - - - - WNW 19 24 10 13 - - -
17/04:00am - - - - - W 24 32 13 17 - - -
17/03:30am - - - - - W 28 33 15 18 - - -
17/03:00am - - - - - W 28 35 15 19 - - -
17/02:30am - - - - - W 24 32 13 17 - - -
17/02:00am - - - - - W 26 33 14 18 - - -
17/01:30am - - - - - W 26 35 14 19 - - -
17/01:00am - - - - - W 28 39 15 21 - - -
17/12:30am - - - - - WSW 32 37 17 20 - - -
17/12:00am - - - - - W 33 44 18 24 - - -
 
Date/Time
EST
Temp
°C
App
Temp
°C
Dew
Point
°C
Rel
Hum
%
Delta-T
°C
Wind Press
QNH
hPa
Press
MSL
hPa
Rain since
9am
mm
Dir  Spd
km/h
Gust
km/h
Spd
kts
Gust
kts
16/11:30pm - - - - - W 30 37 16 20 - - -
16/11:00pm - - - - - WSW 33 41 18 22 - - -
16/10:30pm - - - - - WSW 35 43 19 23 - - -
16/10:00pm - - - - - WSW 37 44 20 24 - - -
16/09:30pm - - - - - WSW 32 39 17 21 - - -
16/09:00pm - - - - - WSW 24 32 13 17 - - -
16/08:30pm - - - - - W 30 35 16 19 - - -
16/08:00pm - - - - - W 30 35 16 19 - - -
16/07:30pm - - - - - W 30 35 16 19 - - -
16/07:00pm - - - - - W 20 28 11 15 - - -
16/06:30pm - - - - - W 32 35 17 19 - - -
16/06:00pm - - - - - W 26 32 14 17 - - -
16/05:30pm - - - - - W 32 43 17 23 - - -
16/05:00pm - - - - - W 33 41 18 22 - - -
16/04:30pm - - - - - WSW 37 43 20 23 - - -
16/04:00pm - - - - - W 44 59 24 32 - - -
16/03:30pm - - - - - W 39 48 21 26 - - -
16/03:00pm - - - - - W 44 54 24 29 - - -
16/02:30pm - - - - - WSW 41 56 22 30 - - -
16/02:00pm - - - - - WSW 41 52 22 28 - - -
16/01:30pm - - - - - W 43 54 23 29 - - -
16/01:00pm - - - - - W 37 46 20 25 - - -
16/12:30pm - - - - - W 41 52 22 28 - - -
16/12:00pm - - - - - WSW 33 43 18 23 - - -
16/11:30am - - - - - W 33 46 18 25 - - -
16/11:00am - - - - - WSW 32 39 17 21 - - -
16/10:52am - - - - - WNW 20 37 11 20 - - -
16/10:30am - - - - - NW 9 15 5 8 - - -
16/10:00am - - - - - W 13 19 7 10 - - -
16/09:30am - - - - - WNW 17 20 9 11 - - -
16/09:00am - - - - - NW 19 24 10 13 - - -
16/08:30am - - - - - WNW 19 24 10 13 - - -
16/08:00am - - - - - NW 19 24 10 13 - - -
16/07:30am - - - - - WNW 20 24 11 13 - - -
16/07:00am - - - - - WNW 19 24 10 13 - - -
16/06:30am - - - - - WNW 20 24 11 13 - - -
16/06:00am - - - - - WNW 20 26 11 14 - - -
16/05:30am - - - - - WNW 22 26 12 14 - - -
16/05:00am - - - - - WNW 22 26 12 14 - - -
16/04:30am - - - - - WNW 22 26 12 14 - - -
16/04:00am - - - - - NW 24 28 13 15 - - -
16/03:30am - - - - - WNW 22 26 12 14 - - -
16/03:00am - - - - - WNW 22 26 12 14 - - -
16/02:30am - - - - - WNW 20 32 11 17 - - -
16/02:00am - - - - - WNW 19 24 10 13 - - -
16/01:30am - - - - - WNW 20 30 11 16 - - -
16/01:00am - - - - - WNW 22 28 12 15 - - -
16/12:30am - - - - - W 22 28 12 15 - - -
16/12:00am - - - - - W 22 28 12 15 - - -
 
Date/Time
EST
Temp
°C
App
Temp
°C
Dew
Point
°C
Rel
Hum
%
Delta-T
°C
Wind Press
QNH
hPa
Press
MSL
hPa
Rain since
9am
mm
Dir  Spd
km/h
Gust
km/h
Spd
kts
Gust
kts
15/11:30pm - - - - - W 20 24 11 13 - - -
15/11:00pm - - - - - W 19 24 10 13 - - -
15/10:30pm - - - - - W 22 28 12 15 - - -
15/10:00pm - - - - - WSW 24 30 13 16 - - -
15/09:30pm - - - - - WSW 28 32 15 17 - - -
15/09:00pm - - - - - WSW 26 30 14 16 - - -
15/08:30pm - - - - - W 22 28 12 15 - - -
15/08:00pm - - - - - W 26 30 14 16 - - -
15/07:30pm - - - - - W 24 28 13 15 - - -
15/07:00pm - - - - - W 19 20 10 11 - - -
15/06:30pm - - - - - W 20 24 11 13 - - -
15/06:00pm - - - - - W 20 24 11 13 - - -
15/05:30pm - - - - - WSW 26 32 14 17 - - -

Latest Capital City Observations: Canberra | Sydney | Melbourne | Brisbane | Adelaide | Perth | Hobart | Darwin

Other formats

Comma delimited format used in spreadsheet applications
http://www.bom.gov.au/fwo/IDQ60901/IDQ60901.94590.axf

JavaScript Object Notation format (JSON) in row-major order
http://www.bom.gov.au/fwo/IDQ60901/IDQ60901.94590.json

Data quality

Most of these data are generated automatically and are frequently updated. Quality checks on data are not normally performed. It is possible for incorrect values to appear. Refer to information at About Latest Weather Observations and please check the disclaimer before using these data.